MBW weather

Melbourne Moorabbin Airport
Melbourne, Victoria, Australia

Public forecast

Using degrees Celsius for public forecast. Weather courtesy of forecast.io.

Closest aviation weather report (METAR) to Melbourne Moorabbin Airport

Closest report is Melbourne Essendon Airport, 17.6 nm (32.7 km) NNW. Retrieved 2019/10/14 15:30 UTC (0 seconds ago):

YMEN 141530Z AUTO 18009KT 9999 // OVC012 13/11 Q1014

Closest aviation forecast (TAF) to Melbourne Moorabbin Airport

Forecast is more than 6 hours old.

Closest forecast is Melbourne International Airport, 21.9 nm (40.6 km) NW. Retrieved 2019/10/14 06:00 UTC (9 hours ago):

TAF YMML 140520Z 1406/1512 18014KT CAVOK FM140800 18010KT 9999 -SHRA SCT015 BKN025 FM141000 18010KT 9999 -SHRA BKN010 FM141500 18008KT 9999 FEW010 BKN018 FM142200 20008KT 9999 BKN022 FM150100 18008KT CAVOK FM151000 19007KT 9999 FEW018 SCT035 TEMPO 1410/1415 BKN008